createdAt,value
2023-01-09T00:03:01.026Z,96925.31
2023-01-09T00:06:07.550Z,96925.47
2023-01-09T00:09:17.019Z,96921.50
2023-01-09T00:12:23.126Z,96925.13
2023-01-09T00:15:30.360Z,96923.16
2023-01-09T00:18:37.360Z,96922.84
2023-01-09T00:21:44.303Z,96915.75
2023-01-09T00:24:52.978Z,96910.19
2023-01-09T00:27:59.955Z,96920.03
2023-01-09T00:31:09.590Z,96916.78
2023-01-09T00:34:16.662Z,96918.69
2023-01-09T00:37:22.731Z,96918.81
2023-01-09T00:40:32.290Z,96926.19
2023-01-09T00:43:48.012Z,96916.16
2023-01-09T00:47:00.608Z,96911.91
2023-01-09T00:50:13.497Z,96882.31
2023-01-09T00:53:26.727Z,96908.31
2023-01-09T00:56:39.279Z,96915.56
2023-01-09T00:59:47.547Z,96916.91
2023-01-09T01:02:53.697Z,96920.53
2023-01-09T01:06:13.073Z,96904.78
2023-01-09T01:09:19.197Z,96902.50
2023-01-09T01:12:28.951Z,96898.03
2023-01-09T01:15:35.335Z,96886.88
2023-01-09T01:18:43.738Z,96883.09
2023-01-09T01:21:49.945Z,96894.91
2023-01-09T01:24:56.930Z,96890.28
2023-01-09T01:28:05.684Z,96899.66
2023-01-09T01:31:18.648Z,96891.09
2023-01-09T01:34:24.861Z,96901.13
2023-01-09T01:37:31.828Z,96894.84
2023-01-09T01:40:38.548Z,96891.56
2023-01-09T01:44:00.024Z,96884.88
2023-01-09T01:47:06.333Z,96867.31
2023-01-09T01:50:24.563Z,96879.75
2023-01-09T01:53:39.065Z,96867.22
2023-01-09T01:56:53.860Z,96878.31
2023-01-09T02:00:07.772Z,96876.13
2023-01-09T02:03:18.887Z,96870.56
2023-01-09T02:06:25.126Z,96874.41
2023-01-09T02:09:32.492Z,96875.94
2023-01-09T02:12:38.467Z,96867.25
2023-01-09T02:16:22.855Z,96870.59
2023-01-09T02:20:43.573Z,96871.72
2023-01-09T02:24:31.304Z,96874.41
2023-01-09T02:28:37.328Z,96858.44
2023-01-09T02:32:00.144Z,96879.38
2023-01-09T02:35:31.552Z,96874.06
2023-01-09T02:38:56.470Z,96855.09
2023-01-09T02:42:16.194Z,96854.63
2023-01-09T02:45:22.551Z,96829.66
2023-01-09T02:48:34.400Z,96825.06
2023-01-09T02:51:55.162Z,96833.34
2023-01-09T02:55:19.570Z,96830.56
2023-01-09T02:58:54.927Z,96822.91
2023-01-09T03:02:35.191Z,96819.66
2023-01-09T03:05:56.956Z,96822.31
2023-01-09T03:09:15.278Z,96824.69
2023-01-09T03:12:28.746Z,96802.63
2023-01-09T03:15:42.939Z,96807.44
2023-01-09T03:18:54.779Z,96806.56
2023-01-09T03:22:05.116Z,96800.34
2023-01-09T03:25:13.244Z,96784.28
2023-01-09T03:28:32.155Z,96777.16
2023-01-09T03:31:38.375Z,96768.47
2023-01-09T03:34:45.210Z,96768.44
2023-01-09T03:37:54.243Z,96762.75
2023-01-09T03:41:01.281Z,96758.13
2023-01-09T03:44:07.403Z,96754.81
2023-01-09T03:47:14.254Z,96753.84
2023-01-09T03:50:20.491Z,96752.69
2023-01-09T03:53:32.204Z,96745.63
2023-01-09T03:56:38.489Z,96737.78
2023-01-09T03:59:45.405Z,96729.88
2023-01-09T04:02:51.665Z,96719.06
2023-01-09T04:05:58.721Z,96733.03
2023-01-09T04:09:07.491Z,96732.84
2023-01-09T04:12:14.615Z,96733.66
2023-01-09T04:15:21.047Z,96726.81
2023-01-09T04:18:27.971Z,96718.16
2023-01-09T04:21:34.110Z,96706.06
2023-01-09T04:24:43.722Z,96714.44
2023-01-09T04:27:49.873Z,96709.03
2023-01-09T04:30:56.731Z,96700.03
2023-01-09T04:34:02.735Z,96685.25
2023-01-09T04:37:09.683Z,96698.09
2023-01-09T04:40:21.582Z,96687.25
2023-01-09T04:43:28.908Z,96676.41
2023-01-09T04:46:34.980Z,96679.03
2023-01-09T04:49:41.954Z,96672.59
2023-01-09T04:52:48.116Z,96675.06
2023-01-09T04:55:57.586Z,96678.34
2023-01-09T04:59:03.671Z,96673.41
2023-01-09T05:02:10.893Z,96665.94
2023-01-09T05:05:17.077Z,96655.88
2023-01-09T05:08:24.827Z,96655.16
2023-01-09T05:11:33.572Z,96648.56
2023-01-09T05:14:40.578Z,96659.47
2023-01-09T05:17:46.634Z,96640.44
2023-01-09T05:20:53.544Z,96639.53
2023-01-09T05:23:59.665Z,96647.47
2023-01-09T05:27:09.166Z,96642.59
2023-01-09T05:30:18.210Z,96638.81
2023-01-09T05:33:25.439Z,96634.03
2023-01-09T05:36:31.489Z,96633.34
2023-01-09T05:39:38.561Z,96631.69
2023-01-09T05:42:48.349Z,96618.41
2023-01-09T05:45:55.446Z,96624.00
2023-01-09T05:49:01.982Z,96624.34
2023-01-09T05:52:08.916Z,96623.84
2023-01-09T05:55:16.106Z,96619.25
2023-01-09T05:58:25.628Z,96615.69
2023-01-09T06:01:31.808Z,96613.53
2023-01-09T06:04:38.813Z,96622.91
2023-01-09T06:07:45.661Z,96623.84
2023-01-09T06:10:52.667Z,96619.25
2023-01-09T06:14:01.378Z,96625.16
2023-01-09T06:17:08.353Z,96627.13
2023-01-09T06:20:15.347Z,96617.63
2023-01-09T06:23:22.239Z,96619.22
2023-01-09T06:26:29.234Z,96621.03
2023-01-09T06:29:38.689Z,96608.56
2023-01-09T06:32:44.859Z,96624.50
2023-01-09T06:35:51.797Z,96615.81
2023-01-09T06:38:57.752Z,96627.63
2023-01-09T06:42:04.655Z,96628.59
2023-01-09T06:45:14.693Z,96617.56
2023-01-09T06:48:21.481Z,96629.56
2023-01-09T06:51:27.503Z,96625.47
2023-01-09T06:54:34.697Z,96630.59
2023-01-09T06:57:40.747Z,96632.38
2023-01-09T07:00:50.953Z,96636.50
2023-01-09T07:03:57.167Z,96629.91
2023-01-09T07:07:04.111Z,96633.84
2023-01-09T07:10:13.238Z,96626.78
2023-01-09T07:13:20.089Z,96633.50
2023-01-09T07:16:29.019Z,96635.47
2023-01-09T07:19:36.076Z,96639.78
2023-01-09T07:22:42.236Z,96629.56
2023-01-09T07:25:49.937Z,96628.88
2023-01-09T07:28:55.949Z,96632.84
2023-01-09T07:32:05.812Z,96622.78
2023-01-09T07:35:13.909Z,96630.47
2023-01-09T07:38:20.898Z,96623.03
2023-01-09T07:41:26.988Z,96625.78
2023-01-09T07:44:34.029Z,96623.47
2023-01-09T07:47:43.960Z,96622.41
2023-01-09T07:50:50.800Z,96618.25
2023-01-09T07:53:57.049Z,96626.78
2023-01-09T07:57:04.222Z,96627.06
2023-01-09T08:00:13.655Z,96615.69
2023-01-09T08:03:23.129Z,96595.00
2023-01-09T08:06:29.149Z,96588.19
2023-01-09T08:09:35.969Z,96591.56
2023-01-09T08:12:46.353Z,96599.06
2023-01-09T08:15:53.140Z,96592.09
2023-01-09T08:19:02.001Z,96585.47
2023-01-09T08:22:08.832Z,96586.22
2023-01-09T08:25:14.833Z,96584.06
2023-01-09T08:28:21.679Z,96581.53
2023-01-09T08:31:27.918Z,96588.97
2023-01-09T08:34:38.819Z,96584.00
2023-01-09T08:37:48.425Z,96596.72
2023-01-09T08:40:55.670Z,96602.75
2023-01-09T08:44:14.292Z,96598.34
2023-01-09T08:47:28.973Z,96585.09
2023-01-09T08:50:37.843Z,96594.09
2023-01-09T08:53:44.803Z,96598.09
2023-01-09T08:56:50.955Z,96596.38
2023-01-09T08:59:57.937Z,96598.19
2023-01-09T09:03:05.205Z,96583.19
2023-01-09T09:06:14.842Z,96591.72
2023-01-09T09:09:21.000Z,96591.63
2023-01-09T09:12:28.349Z,96593.78
2023-01-09T09:15:34.656Z,96605.31
2023-01-09T09:18:41.612Z,96599.09
2023-01-09T09:21:50.297Z,96595.78
2023-01-09T09:24:57.316Z,96595.31
2023-01-09T09:28:03.975Z,96591.66
2023-01-09T09:31:11.656Z,96581.13
2023-01-09T09:34:17.713Z,96577.16
2023-01-09T09:37:27.897Z,96573.81
2023-01-09T09:41:34.278Z,96565.38
2023-01-09T09:45:05.875Z,96579.03
2023-01-09T09:48:38.190Z,96575.28
2023-01-09T09:52:12.290Z,96574.75
2023-01-09T09:55:33.049Z,96563.84
2023-01-09T09:58:44.749Z,96565.50
2023-01-09T10:02:01.331Z,96554.94
2023-01-09T10:05:20.163Z,96556.53
2023-01-09T10:08:44.360Z,96553.75
2023-01-09T10:12:06.990Z,96555.41
2023-01-09T10:15:22.605Z,96555.66
2023-01-09T10:18:50.439Z,96554.47
2023-01-09T10:22:16.270Z,96547.38
2023-01-09T10:25:34.453Z,96547.41
2023-01-09T10:29:26.965Z,96551.91
2023-01-09T10:33:04.595Z,96554.84
2023-01-09T10:37:01.881Z,96550.63
2023-01-09T10:40:24.022Z,96548.41
2023-01-09T10:43:42.147Z,96550.03
2023-01-09T10:46:58.280Z,96542.69
2023-01-09T10:50:21.788Z,96544.56
2023-01-09T10:53:38.850Z,96536.97
2023-01-09T10:56:58.501Z,96539.00
2023-01-09T11:00:06.893Z,96537.38
2023-01-09T11:03:19.592Z,96540.03
2023-01-09T11:06:35.535Z,96541.25
2023-01-09T11:10:01.115Z,96548.78
2023-01-09T11:13:22.088Z,96541.00
2023-01-09T11:16:28.279Z,96540.59
2023-01-09T11:19:37.850Z,96555.28
2023-01-09T11:22:48.574Z,96549.41
2023-01-09T11:25:58.803Z,96543.66
2023-01-09T11:29:15.707Z,96541.00
2023-01-09T11:32:27.936Z,96542.00
2023-01-09T11:35:38.670Z,96533.66
2023-01-09T11:38:54.920Z,96540.34
2023-01-09T11:42:05.483Z,96540.16
2023-01-09T11:45:20.694Z,96538.50
2023-01-09T11:48:57.244Z,96540.16
2023-01-09T11:52:23.429Z,96542.94
2023-01-09T11:55:41.803Z,96542.59
2023-01-09T11:58:49.320Z,96521.34
2023-01-09T12:02:34.093Z,96531.47
2023-01-09T12:06:01.568Z,96531.66
2023-01-09T12:09:19.591Z,96534.34
2023-01-09T12:12:44.943Z,96531.28
2023-01-09T12:16:11.171Z,96528.06
2023-01-09T12:20:07.661Z,96521.75
2023-01-09T12:23:42.932Z,96524.97
2023-01-09T12:27:17.526Z,96511.50
2023-01-09T12:30:43.566Z,96512.94
2023-01-09T12:34:23.011Z,96515.41
2023-01-09T12:38:08.441Z,96512.19
2023-01-09T12:41:46.626Z,96507.25
2023-01-09T12:45:05.113Z,96517.75
2023-01-09T12:48:38.601Z,96521.66
2023-01-09T12:51:55.198Z,96516.56
2023-01-09T12:55:17.734Z,96505.16
2023-01-09T12:58:39.409Z,96505.56
2023-01-09T13:01:53.205Z,96498.63
2023-01-09T13:05:06.142Z,96510.84
2023-01-09T13:08:25.928Z,96506.31
2023-01-09T13:11:43.777Z,96527.66
2023-01-09T13:14:59.403Z,96516.66
2023-01-09T13:18:19.762Z,96532.00
2023-01-09T13:21:27.672Z,96552.81
2023-01-09T13:24:51.084Z,96554.03
2023-01-09T13:28:05.183Z,96560.63
2023-01-09T13:31:57.627Z,96561.47
2023-01-09T13:35:15.642Z,96563.09
2023-01-09T13:38:26.900Z,96566.94
2023-01-09T13:41:48.121Z,96577.56
2023-01-09T13:45:11.832Z,96581.81
2023-01-09T13:48:32.394Z,96572.44
2023-01-09T13:52:07.329Z,96576.16
2023-01-09T13:55:36.384Z,96577.75
2023-01-09T13:59:09.513Z,96576.72
2023-01-09T14:02:59.356Z,96584.72
2023-01-09T14:06:24.521Z,96592.00
2023-01-09T14:09:37.776Z,96600.59
2023-01-09T14:12:47.044Z,96605.47
2023-01-09T14:16:04.666Z,96608.28
2023-01-09T14:19:35.095Z,96613.78
2023-01-09T14:22:50.471Z,96628.84
2023-01-09T14:26:06.834Z,96643.75
2023-01-09T14:29:47.641Z,96643.75
2023-01-09T14:33:00.929Z,96626.41
2023-01-09T14:36:19.752Z,96643.78
2023-01-09T14:39:29.092Z,96649.41
2023-01-09T14:42:45.027Z,96642.25
2023-01-09T14:45:53.364Z,96644.91
2023-01-09T14:49:16.560Z,96643.81
2023-01-09T14:52:31.208Z,96644.03
2023-01-09T14:55:54.047Z,96640.34
2023-01-09T14:59:16.754Z,96647.22
2023-01-09T15:02:24.504Z,96646.97
2023-01-09T15:05:31.870Z,96657.41
2023-01-09T15:08:40.629Z,96662.25
2023-01-09T15:11:47.717Z,96656.34
2023-01-09T15:15:05.002Z,96663.09
2023-01-09T15:18:12.912Z,96665.94
2023-01-09T15:21:27.702Z,96671.16
2023-01-09T15:24:37.541Z,96678.84
2023-01-09T15:27:51.806Z,96693.25
2023-01-09T15:31:08.022Z,96704.03
2023-01-09T15:34:24.944Z,96710.84
2023-01-09T15:37:39.150Z,96704.97
2023-01-09T15:40:46.818Z,96704.34
2023-01-09T15:43:53.077Z,96689.97
2023-01-09T15:47:07.469Z,96717.59
2023-01-09T15:50:19.077Z,96729.31
2023-01-09T15:53:29.906Z,96733.03
2023-01-09T15:56:39.381Z,96728.94
2023-01-09T15:59:46.354Z,96724.06
2023-01-09T16:03:07.584Z,96717.97
2023-01-09T16:06:26.630Z,96718.16
2023-01-09T16:09:38.027Z,96720.16
2023-01-09T16:12:44.968Z,96726.88
2023-01-09T16:15:52.503Z,96715.41
2023-01-09T16:19:03.063Z,96733.50
2023-01-09T16:22:24.071Z,96739.47
2023-01-09T16:25:35.174Z,96730.97
2023-01-09T16:28:43.219Z,96735.06
2023-01-09T16:31:50.457Z,96738.91
2023-01-09T16:35:05.574Z,96754.88
2023-01-09T16:38:17.900Z,96746.97
2023-01-09T16:41:40.376Z,96755.63
2023-01-09T16:44:47.585Z,96755.78
2023-01-09T16:47:55.482Z,96755.56
2023-01-09T16:51:05.030Z,96760.47
2023-01-09T16:54:11.943Z,96756.19
2023-01-09T16:57:21.850Z,96759.41
2023-01-09T17:00:28.422Z,96750.94
2023-01-09T17:03:35.574Z,96764.53
2023-01-09T17:06:45.690Z,96770.38
2023-01-09T17:09:53.476Z,96782.03
2023-01-09T17:12:59.759Z,96783.06
2023-01-09T17:16:08.955Z,96787.53
2023-01-09T17:19:23.689Z,96794.50
2023-01-09T17:22:33.202Z,96790.50
2023-01-09T17:25:52.338Z,96798.69
2023-01-09T17:28:59.271Z,96799.09
2023-01-09T17:32:06.927Z,96806.44
2023-01-09T17:35:16.278Z,96793.56
2023-01-09T17:38:25.138Z,96810.41
2023-01-09T17:41:35.147Z,96817.72
2023-01-09T17:44:41.562Z,96825.06
2023-01-09T17:47:48.464Z,96826.63
2023-01-09T17:50:54.585Z,96828.75
2023-01-09T17:54:04.172Z,96834.75
2023-01-09T17:57:17.680Z,96843.97
2023-01-09T18:00:30.950Z,96840.91
2023-01-09T18:03:36.989Z,96829.75
2023-01-09T18:06:44.056Z,96834.09
2023-01-09T18:09:52.747Z,96831.06
2023-01-09T18:13:00.604Z,96833.94
2023-01-09T18:16:07.576Z,96832.72
2023-01-09T18:19:14.543Z,96842.53
2023-01-09T18:22:20.764Z,96846.75
2023-01-09T18:25:30.264Z,96851.63
2023-01-09T18:28:39.300Z,96848.94
2023-01-09T18:31:46.283Z,96857.63
2023-01-09T18:34:52.404Z,96851.09
2023-01-09T18:37:59.373Z,96868.94
2023-01-09T18:41:09.450Z,96860.38
2023-01-09T18:44:18.245Z,96869.63
2023-01-09T18:47:24.243Z,96863.47
2023-01-09T18:50:31.249Z,96869.66
2023-01-09T18:53:38.393Z,96870.44
2023-01-09T18:56:48.018Z,96873.25
2023-01-09T18:59:54.302Z,96871.88
2023-01-09T19:03:01.651Z,96883.03
2023-01-09T19:06:08.777Z,96882.34
2023-01-09T19:09:16.132Z,96884.53
2023-01-09T19:12:25.591Z,96882.34
2023-01-09T19:15:34.905Z,96882.72
2023-01-09T19:18:44.771Z,96881.34
2023-01-09T19:21:51.856Z,96879.31
2023-01-09T19:24:58.097Z,96881.47
2023-01-09T19:28:08.101Z,96877.88
2023-01-09T19:31:14.495Z,96873.75
2023-01-09T19:34:21.789Z,96883.78
2023-01-09T19:37:28.022Z,96885.47
2023-01-09T19:40:35.204Z,96894.69
2023-01-09T19:43:44.757Z,96893.25
2023-01-09T19:46:51.960Z,96896.41
2023-01-09T19:49:58.300Z,96890.97
2023-01-09T19:53:05.280Z,96890.81
2023-01-09T19:56:17.414Z,96897.09
2023-01-09T19:59:27.015Z,96897.47
2023-01-09T20:02:33.127Z,96895.75
2023-01-09T20:05:40.062Z,96903.97
2023-01-09T20:08:47.786Z,96909.75
2023-01-09T20:11:54.735Z,96903.72
2023-01-09T20:15:03.439Z,96914.13
2023-01-09T20:18:10.628Z,96909.69
2023-01-09T20:24:30.169Z,96919.31
2023-01-09T20:27:36.252Z,96914.94
2023-01-09T20:30:50.680Z,96920.59
2023-01-09T20:33:59.191Z,96916.13
2023-01-09T20:37:06.103Z,96916.63
2023-01-09T20:40:14.308Z,96913.44
2023-01-09T20:43:21.356Z,96915.59
2023-01-09T20:46:37.094Z,96922.00
2023-01-09T20:49:43.990Z,96921.63
2023-01-09T20:52:52.036Z,96918.94
2023-01-09T20:56:04.370Z,96929.78
2023-01-09T20:59:17.391Z,96930.31
2023-01-09T21:02:26.993Z,96936.06
2023-01-09T21:05:33.125Z,96939.88
2023-01-09T21:08:42.218Z,96934.41
2023-01-09T21:11:48.373Z,96932.97
2023-01-09T21:14:55.399Z,96929.50
2023-01-09T21:18:04.272Z,96939.00
2023-01-09T21:21:16.287Z,96937.25
2023-01-09T21:24:22.433Z,96930.59
2023-01-09T21:27:30.833Z,96935.41
2023-01-09T21:30:37.180Z,96941.25
2023-01-09T21:33:47.046Z,96950.72
2023-01-09T21:36:54.033Z,96948.09
2023-01-09T21:40:01.024Z,96956.72
2023-01-09T21:43:19.629Z,96965.94
2023-01-09T21:46:39.076Z,96970.94
2023-01-09T21:49:48.602Z,96972.19
2023-01-09T21:52:55.544Z,96982.16
2023-01-09T21:56:05.431Z,96984.44
2023-01-09T21:59:13.643Z,96989.44
2023-01-09T22:02:21.686Z,96991.19
2023-01-09T22:05:32.044Z,96997.66
2023-01-09T22:08:39.222Z,96992.38
2023-01-09T22:11:46.941Z,96996.41
2023-01-09T22:14:52.960Z,96998.91
2023-01-09T22:17:59.893Z,96998.03
2023-01-09T22:21:09.264Z,96994.09
2023-01-09T22:24:19.794Z,96995.22
2023-01-09T22:27:26.319Z,97005.19
2023-01-09T22:30:33.448Z,97010.13
2023-01-09T22:33:39.614Z,97009.00
2023-01-09T22:36:50.696Z,97014.16
2023-01-09T22:39:56.809Z,97022.75
2023-01-09T22:43:03.744Z,97024.22
2023-01-09T22:46:12.762Z,97017.47
2023-01-09T22:49:19.837Z,97021.63
2023-01-09T22:52:28.957Z,97024.47
2023-01-09T22:55:35.922Z,97018.13
2023-01-09T22:58:42.481Z,97028.00
2023-01-09T23:01:49.517Z,97017.88
2023-01-09T23:04:58.534Z,97023.88
2023-01-09T23:08:08.460Z,97027.00
2023-01-09T23:11:39.516Z,97022.03
2023-01-09T23:14:46.510Z,97001.84
2023-01-09T23:17:52.542Z,97027.19
2023-01-09T23:21:03.054Z,97025.50
2023-01-09T23:24:12.511Z,97030.78
2023-01-09T23:27:19.442Z,97026.81
2023-01-09T23:30:26.080Z,97032.81
2023-01-09T23:33:33.125Z,97035.59
2023-01-09T23:36:39.869Z,97028.47
2023-01-09T23:39:49.375Z,97026.00
2023-01-09T23:43:07.832Z,97027.84
2023-01-09T23:46:15.490Z,97033.47
2023-01-09T23:49:21.631Z,97033.16
2023-01-09T23:52:28.517Z,97039.31
2023-01-09T23:55:39.445Z,97033.22
2023-01-09T23:58:46.398Z,97045.94
